sensor_id;sensor_type;location;lat;lon;timestamp;pressure;altitude;pressure_sealevel;temperature;humidity
60061;BME280;45933;51.336;12.612;2023-04-06T00:02:10;100356.66;;;3.54;48.91
60061;BME280;45933;51.336;12.612;2023-04-06T00:04:35;100360.91;;;3.53;48.73
60061;BME280;45933;51.336;12.612;2023-04-06T00:07:01;100356.66;;;3.54;48.90
60061;BME280;45933;51.336;12.612;2023-04-06T00:09:26;100358.41;;;3.55;48.98
60061;BME280;45933;51.336;12.612;2023-04-06T00:11:51;100360.13;;;3.56;49.12
60061;BME280;45933;51.336;12.612;2023-04-06T00:14:16;100360.19;;;3.57;48.93
60061;BME280;45933;51.336;12.612;2023-04-06T00:16:42;100353.31;;;3.58;49.29
60061;BME280;45933;51.336;12.612;2023-04-06T00:19:07;100355.88;;;3.58;49.25
60061;BME280;45933;51.336;12.612;2023-04-06T00:21:33;100348.25;;;3.61;48.94
60061;BME280;45933;51.336;12.612;2023-04-06T00:23:58;100345.66;;;3.61;49.32
60061;BME280;45933;51.336;12.612;2023-04-06T00:26:23;100347.41;;;3.62;49.42
60061;BME280;45933;51.336;12.612;2023-04-06T00:28:48;100348.28;;;3.62;48.94
60061;BME280;45933;51.336;12.612;2023-04-06T00:31:17;100352.69;;;3.66;49.25
60061;BME280;45933;51.336;12.612;2023-04-06T00:33:42;100347.63;;;3.70;49.33
60061;BME280;45933;51.336;12.612;2023-04-06T00:36:07;100342.56;;;3.74;49.00
60061;BME280;45933;51.336;12.612;2023-04-06T00:38:32;100339.22;;;3.77;49.16
60061;BME280;45933;51.336;12.612;2023-04-06T00:40:58;100340.97;;;3.79;49.05
60061;BME280;45933;51.336;12.612;2023-04-06T00:43:23;100343.66;;;3.82;48.90
60061;BME280;45933;51.336;12.612;2023-04-06T00:45:49;100342.91;;;3.86;49.37
60061;BME280;45933;51.336;12.612;2023-04-06T00:48:14;100341.25;;;3.90;49.60
60061;BME280;45933;51.336;12.612;2023-04-06T00:50:40;100342.19;;;3.92;49.46
60061;BME280;45933;51.336;12.612;2023-04-06T00:53:05;100338.00;;;3.97;49.35
60061;BME280;45933;51.336;12.612;2023-04-06T00:55:31;100336.34;;;3.99;49.40
60061;BME280;45933;51.336;12.612;2023-04-06T00:57:57;100335.59;;;4.03;49.47
60061;BME280;45933;51.336;12.612;2023-04-06T01:00:24;100334.78;;;4.06;49.29
60061;BME280;45933;51.336;12.612;2023-04-06T01:02:49;100328.00;;;4.09;49.21
60061;BME280;45933;51.336;12.612;2023-04-06T01:05:15;100329.78;;;4.12;49.28
60061;BME280;45933;51.336;12.612;2023-04-06T01:07:40;100335.00;;;4.15;49.29
60061;BME280;45933;51.336;12.612;2023-04-06T01:10:06;100328.22;;;4.18;49.02
60061;BME280;45933;51.336;12.612;2023-04-06T01:12:31;100330.84;;;4.22;48.99
60061;BME280;45933;51.336;12.612;2023-04-06T01:14:56;100330.91;;;4.23;48.76
60061;BME280;45933;51.336;12.612;2023-04-06T01:17:22;100328.38;;;4.26;49.06
60061;BME280;45933;51.336;12.612;2023-04-06T01:19:47;100331.94;;;4.30;48.84
60061;BME280;45933;51.336;12.612;2023-04-06T01:22:18;100319.13;;;4.34;48.62
60061;BME280;45933;51.336;12.612;2023-04-06T01:24:43;100325.13;;;4.33;49.11
60061;BME280;45933;51.336;12.612;2023-04-06T01:27:09;100324.28;;;4.34;48.66
60061;BME280;45933;51.336;12.612;2023-04-06T01:29:34;100320.94;;;4.38;48.68
60061;BME280;45933;51.336;12.612;2023-04-06T01:32:00;100318.31;;;4.37;48.67
60061;BME280;45933;51.336;12.612;2023-04-06T01:34:25;100318.41;;;4.40;48.91
60061;BME280;45933;51.336;12.612;2023-04-06T01:36:51;100317.59;;;4.42;48.42
60061;BME280;45933;51.336;12.612;2023-04-06T01:39:16;100307.25;;;4.42;48.59
60061;BME280;45933;51.336;12.612;2023-04-06T01:41:41;100312.47;;;4.44;48.52
60061;BME280;45933;51.336;12.612;2023-04-06T01:44:07;100317.66;;;4.45;48.45
60061;BME280;45933;51.336;12.612;2023-04-06T01:46:32;100309.06;;;4.46;48.57
60061;BME280;45933;51.336;12.612;2023-04-06T01:48:57;100316.84;;;4.48;48.75
60061;BME280;45933;51.336;12.612;2023-04-06T01:51:22;100309.09;;;4.48;48.81
60061;BME280;45933;51.336;12.612;2023-04-06T01:53:49;100303.13;;;4.49;48.70
60061;BME280;45933;51.336;12.612;2023-04-06T01:56:14;100303.16;;;4.51;48.87
60061;BME280;45933;51.336;12.612;2023-04-06T01:58:40;100303.16;;;4.51;48.70
60061;BME280;45933;51.336;12.612;2023-04-06T02:01:05;100300.56;;;4.51;48.79
60061;BME280;45933;51.336;12.612;2023-04-06T02:03:30;100293.69;;;4.51;48.35
60061;BME280;45933;51.336;12.612;2023-04-06T02:05:56;100299.72;;;4.52;48.58
60061;BME280;45933;51.336;12.612;2023-04-06T02:08:21;100298.00;;;4.51;48.77
60061;BME280;45933;51.336;12.612;2023-04-06T02:10:47;100296.28;;;4.51;48.58
60061;BME280;45933;51.336;12.612;2023-04-06T02:13:14;100300.53;;;4.49;48.77
60061;BME280;45933;51.336;12.612;2023-04-06T02:15:39;100293.69;;;4.51;48.80
60061;BME280;45933;51.336;12.612;2023-04-06T02:18:05;100290.28;;;4.52;48.46
60061;BME280;45933;51.336;12.612;2023-04-06T02:20:30;100290.28;;;4.52;48.67
60061;BME280;45933;51.336;12.612;2023-04-06T02:22:58;100297.16;;;4.52;48.88
60061;BME280;45933;51.336;12.612;2023-04-06T02:25:23;100294.56;;;4.52;49.02
60061;BME280;45933;51.336;12.612;2023-04-06T02:27:49;100294.56;;;4.52;48.72
60061;BME280;45933;51.336;12.612;2023-04-06T02:30:14;100287.75;;;4.54;48.66
60061;BME280;45933;51.336;12.612;2023-04-06T02:32:39;100294.59;;;4.53;48.96
60061;BME280;45933;51.336;12.612;2023-04-06T02:35:10;100293.81;;;4.56;48.15
60061;BME280;45933;51.336;12.612;2023-04-06T02:37:35;100295.44;;;4.52;48.61
60061;BME280;45933;51.336;12.612;2023-04-06T02:40:01;100296.31;;;4.53;48.34
60061;BME280;45933;51.336;12.612;2023-04-06T02:42:26;100292.84;;;4.52;48.72
60061;BME280;45933;51.336;12.612;2023-04-06T02:44:51;100295.44;;;4.52;48.97
60061;BME280;45933;51.336;12.612;2023-04-06T02:47:16;100293.69;;;4.51;48.84
60061;BME280;45933;51.336;12.612;2023-04-06T02:49:42;100291.94;;;4.49;49.08
60061;BME280;45933;51.336;12.612;2023-04-06T02:52:07;100290.13;;;4.44;49.31
60061;BME280;45933;51.336;12.612;2023-04-06T02:54:32;100286.66;;;4.44;49.39
60061;BME280;45933;51.336;12.612;2023-04-06T02:56:57;100294.31;;;4.41;49.59
60061;BME280;45933;51.336;12.612;2023-04-06T02:59:23;100288.28;;;4.40;49.56
60061;BME280;45933;51.336;12.612;2023-04-06T03:01:48;100289.94;;;4.37;49.46
60061;BME280;45933;51.336;12.612;2023-04-06T03:04:13;100290.75;;;4.34;49.54
60061;BME280;45933;51.336;12.612;2023-04-06T03:06:38;100287.28;;;4.34;49.51
60061;BME280;45933;51.336;12.612;2023-04-06T03:09:05;100284.59;;;4.29;49.69
60061;BME280;45933;51.336;12.612;2023-04-06T03:11:31;100286.34;;;4.30;49.56
60061;BME280;45933;51.336;12.612;2023-04-06T03:13:56;100294.03;;;4.27;50.10
60061;BME280;45933;51.336;12.612;2023-04-06T03:16:21;100282.00;;;4.28;49.92
60061;BME280;45933;51.336;12.612;2023-04-06T03:18:47;100285.38;;;4.27;49.98
60061;BME280;45933;51.336;12.612;2023-04-06T03:21:13;100291.34;;;4.23;50.50
60061;BME280;45933;51.336;12.612;2023-04-06T03:23:40;100291.38;;;4.26;50.27
60061;BME280;45933;51.336;12.612;2023-04-06T03:26:05;100284.50;;;4.25;50.55
60061;BME280;45933;51.336;12.612;2023-04-06T03:28:30;100289.66;;;4.25;50.28
60061;BME280;45933;51.336;12.612;2023-04-06T03:30:56;100289.63;;;4.23;50.60
60061;BME280;45933;51.336;12.612;2023-04-06T03:33:21;100298.25;;;4.24;50.57
60061;BME280;45933;51.336;12.612;2023-04-06T03:35:46;100292.22;;;4.25;50.36
60061;BME280;45933;51.336;12.612;2023-04-06T03:38:11;100283.53;;;4.21;50.65
60061;BME280;45933;51.336;12.612;2023-04-06T03:40:37;100285.31;;;4.22;50.63
60061;BME280;45933;51.336;12.612;2023-04-06T03:43:02;100287.00;;;4.22;50.43
60061;BME280;45933;51.336;12.612;2023-04-06T03:45:27;100293.06;;;4.22;50.76
60061;BME280;45933;51.336;12.612;2023-04-06T03:47:52;100289.56;;;4.22;50.68
60061;BME280;45933;51.336;12.612;2023-04-06T03:50:18;100292.16;;;4.22;50.66
60061;BME280;45933;51.336;12.612;2023-04-06T03:52:43;100296.41;;;4.19;51.08
60061;BME280;45933;51.336;12.612;2023-04-06T03:55:08;100306.72;;;4.19;51.01
60061;BME280;45933;51.336;12.612;2023-04-06T03:57:34;100302.41;;;4.17;50.96
60061;BME280;45933;51.336;12.612;2023-04-06T03:59:59;100304.06;;;4.16;50.96
60061;BME280;45933;51.336;12.612;2023-04-06T04:02:24;100311.91;;;4.19;50.75
60061;BME280;45933;51.336;12.612;2023-04-06T04:04:50;100315.31;;;4.18;50.95
60061;BME280;45933;51.336;12.612;2023-04-06T04:07:15;100311.81;;;4.16;50.93
60061;BME280;45933;51.336;12.612;2023-04-06T04:09:40;100314.38;;;4.16;51.21
60061;BME280;45933;51.336;12.612;2023-04-06T04:12:06;100310.00;;;4.12;51.29
60061;BME280;45933;51.336;12.612;2023-04-06T04:14:31;100309.06;;;4.09;51.59
60061;BME280;45933;51.336;12.612;2023-04-06T04:16:56;100313.47;;;4.13;51.52
60061;BME280;45933;51.336;12.612;2023-04-06T04:19:21;100308.31;;;4.13;51.27
60061;BME280;45933;51.336;12.612;2023-04-06T04:21:47;100315.19;;;4.12;51.30
60061;BME280;45933;51.336;12.612;2023-04-06T04:24:13;100316.91;;;4.13;51.28
60061;BME280;45933;51.336;12.612;2023-04-06T04:26:39;100309.94;;;4.09;51.50
60061;BME280;45933;51.336;12.612;2023-04-06T04:29:05;100312.50;;;4.09;51.63
60061;BME280;45933;51.336;12.612;2023-04-06T04:31:30;100309.06;;;4.09;51.19
60061;BME280;45933;51.336;12.612;2023-04-06T04:33:56;100315.94;;;4.08;51.52
60061;BME280;45933;51.336;12.612;2023-04-06T04:36:22;100319.34;;;4.07;51.32
60061;BME280;45933;51.336;12.612;2023-04-06T04:38:48;100312.47;;;4.06;51.30
60061;BME280;45933;51.336;12.612;2023-04-06T04:41:13;100311.56;;;4.06;51.20
60061;BME280;45933;51.336;12.612;2023-04-06T04:43:38;100321.06;;;4.07;50.98
60061;BME280;45933;51.336;12.612;2023-04-06T04:46:04;100320.13;;;4.05;50.99
60061;BME280;45933;51.336;12.612;2023-04-06T04:48:30;100321.84;;;4.04;50.81
60061;BME280;45933;51.336;12.612;2023-04-06T04:50:55;100322.69;;;4.03;50.89
60061;BME280;45933;51.336;12.612;2023-04-06T04:53:20;100314.94;;;4.03;50.78
60061;BME280;45933;51.336;12.612;2023-04-06T04:55:45;100318.38;;;4.02;50.81
60061;BME280;45933;51.336;12.612;2023-04-06T04:58:11;100327.81;;;4.02;50.77
60061;BME280;45933;51.336;12.612;2023-04-06T05:00:40;100325.19;;;4.00;50.98
60061;BME280;45933;51.336;12.612;2023-04-06T05:03:06;100324.31;;;4.00;50.71
60061;BME280;45933;51.336;12.612;2023-04-06T05:05:31;100322.56;;;3.99;50.94
60061;BME280;45933;51.336;12.612;2023-04-06T05:07:56;100325.16;;;3.99;51.03
60061;BME280;45933;51.336;12.612;2023-04-06T05:10:22;100328.59;;;3.99;51.00
60061;BME280;45933;51.336;12.612;2023-04-06T05:12:47;100331.16;;;3.98;50.72
60061;BME280;45933;51.336;12.612;2023-04-06T05:15:12;100329.44;;;3.98;51.07
60061;BME280;45933;51.336;12.612;2023-04-06T05:17:38;100331.19;;;3.99;51.07
60061;BME280;45933;51.336;12.612;2023-04-06T05:20:04;100330.31;;;3.99;51.37
60061;BME280;45933;51.336;12.612;2023-04-06T05:22:30;100332.09;;;4.01;51.28
60061;BME280;45933;51.336;12.612;2023-04-06T05:24:56;100330.34;;;4.00;51.43
60061;BME280;45933;51.336;12.612;2023-04-06T05:27:21;100334.72;;;4.03;51.41
60061;BME280;45933;51.336;12.612;2023-04-06T05:29:46;100334.72;;;4.03;51.20
60061;BME280;45933;51.336;12.612;2023-04-06T05:32:12;100333.88;;;4.04;51.42
60061;BME280;45933;51.336;12.612;2023-04-06T05:34:37;100331.31;;;4.05;51.44
60061;BME280;45933;51.336;12.612;2023-04-06T05:37:02;100332.25;;;4.07;51.01
60061;BME280;45933;51.336;12.612;2023-04-06T05:39:27;100336.59;;;4.10;51.29
60061;BME280;45933;51.336;12.612;2023-04-06T05:41:53;100344.41;;;4.11;51.60
60061;BME280;45933;51.336;12.612;2023-04-06T05:44:18;100337.56;;;4.13;51.50
60061;BME280;45933;51.336;12.612;2023-04-06T05:46:43;100342.84;;;4.18;51.38
60061;BME280;45933;51.336;12.612;2023-04-06T05:49:08;100341.25;;;4.23;51.30
60061;BME280;45933;51.336;12.612;2023-04-06T05:51:34;100343.00;;;4.26;50.91
60061;BME280;45933;51.336;12.612;2023-04-06T05:53:59;100339.75;;;4.33;50.50
60061;BME280;45933;51.336;12.612;2023-04-06T05:56:24;100343.38;;;4.41;50.78
60061;BME280;45933;51.336;12.612;2023-04-06T05:58:50;100342.63;;;4.46;50.47
60061;BME280;45933;51.336;12.612;2023-04-06T06:01:15;100347.16;;;4.55;50.19
60061;BME280;45933;51.336;12.612;2023-04-06T06:03:41;100344.78;;;4.64;49.93
60061;BME280;45933;51.336;12.612;2023-04-06T06:06:06;100346.63;;;4.70;49.34
60061;BME280;45933;51.336;12.612;2023-04-06T06:08:31;100347.59;;;4.75;49.40
60061;BME280;45933;51.336;12.612;2023-04-06T06:10:57;100341.63;;;4.79;49.61
60061;BME280;45933;51.336;12.612;2023-04-06T06:13:23;100346.22;;;4.91;50.15
60061;BME280;45933;51.336;12.612;2023-04-06T06:15:49;100355.88;;;4.99;49.85
60061;BME280;45933;51.336;12.612;2023-04-06T06:18:14;100347.41;;;5.07;49.18
60061;BME280;45933;51.336;12.612;2023-04-06T06:20:40;100351.00;;;5.13;49.18
60061;BME280;45933;51.336;12.612;2023-04-06T06:23:05;100347.75;;;5.23;49.07
60061;BME280;45933;51.336;12.612;2023-04-06T06:25:30;100342.72;;;5.30;48.22
60061;BME280;45933;51.336;12.612;2023-04-06T06:27:56;100344.31;;;5.24;47.66
60061;BME280;45933;51.336;12.612;2023-04-06T06:30:21;100349.91;;;5.44;47.39
60061;BME280;45933;51.336;12.612;2023-04-06T06:32:47;100350.09;;;5.55;47.19
60061;BME280;45933;51.336;12.612;2023-04-06T06:35:12;100347.53;;;5.57;46.79
60061;BME280;45933;51.336;12.612;2023-04-06T06:37:37;100352.81;;;5.63;46.40
60061;BME280;45933;51.336;12.612;2023-04-06T06:40:03;100342.66;;;5.72;46.30
60061;BME280;45933;51.336;12.612;2023-04-06T06:42:28;100342.78;;;5.80;46.38
60061;BME280;45933;51.336;12.612;2023-04-06T06:44:54;100351.44;;;5.80;45.70
60061;BME280;45933;51.336;12.612;2023-04-06T06:47:19;100347.25;;;5.88;45.71
60061;BME280;45933;51.336;12.612;2023-04-06T06:49:44;100351.69;;;5.94;45.99
60061;BME280;45933;51.336;12.612;2023-04-06T06:52:09;100356.97;;;6.00;45.95
60061;BME280;45933;51.336;12.612;2023-04-06T06:54:35;100349.19;;;6.00;46.12
60061;BME280;45933;51.336;12.612;2023-04-06T06:57:00;100355.41;;;6.08;46.14
60061;BME280;45933;51.336;12.612;2023-04-06T06:59:25;100366.72;;;6.15;46.09
60061;BME280;45933;51.336;12.612;2023-04-06T07:01:51;100366.78;;;6.19;45.49
60061;BME280;45933;51.336;12.612;2023-04-06T07:04:16;100364.19;;;6.18;45.78
60061;BME280;45933;51.336;12.612;2023-04-06T07:06:41;100360.03;;;6.27;46.15
60061;BME280;45933;51.336;12.612;2023-04-06T07:09:07;100354.00;;;6.28;44.69
60061;BME280;45933;51.336;12.612;2023-04-06T07:11:32;100360.25;;;6.43;45.04
60061;BME280;45933;51.336;12.612;2023-04-06T07:13:57;100362.13;;;6.51;43.80
60061;BME280;45933;51.336;12.612;2023-04-06T07:16:23;100358.81;;;6.62;43.14
60061;BME280;45933;51.336;12.612;2023-04-06T07:18:48;100354.56;;;6.65;43.37
60061;BME280;45933;51.336;12.612;2023-04-06T07:21:13;100365.03;;;6.71;41.58
60061;BME280;45933;51.336;12.612;2023-04-06T07:23:39;100359.97;;;6.80;42.05
60061;BME280;45933;51.336;12.612;2023-04-06T07:26:05;100362.59;;;6.82;40.51
60061;BME280;45933;51.336;12.612;2023-04-06T07:28:30;100358.53;;;7.02;41.67
60061;BME280;45933;51.336;12.612;2023-04-06T07:30:56;100356.91;;;7.11;40.27
60061;BME280;45933;51.336;12.612;2023-04-06T07:33:21;100351.91;;;7.23;41.08
60061;BME280;45933;51.336;12.612;2023-04-06T07:35:46;100355.41;;;7.28;39.98
60061;BME280;45933;51.336;12.612;2023-04-06T07:38:12;100353.69;;;7.30;40.18
60061;BME280;45933;51.336;12.612;2023-04-06T07:40:37;100357.22;;;7.35;39.43
60061;BME280;45933;51.336;12.612;2023-04-06T07:43:03;100350.47;;;7.51;39.12
60061;BME280;45933;51.336;12.612;2023-04-06T07:45:28;100357.41;;;7.52;38.76
60061;BME280;45933;51.336;12.612;2023-04-06T07:47:53;100353.25;;;7.66;39.73
60061;BME280;45933;51.336;12.612;2023-04-06T07:50:19;100354.22;;;7.76;39.97
60061;BME280;45933;51.336;12.612;2023-04-06T07:52:45;100355.13;;;7.84;39.95
60061;BME280;45933;51.336;12.612;2023-04-06T07:55:10;100345.63;;;7.83;39.80
60061;BME280;45933;51.336;12.612;2023-04-06T07:57:36;100351.81;;;7.97;39.92
60061;BME280;45933;51.336;12.612;2023-04-06T08:00:01;100351.88;;;8.05;40.58
60061;BME280;45933;51.336;12.612;2023-04-06T08:02:28;100345.00;;;8.11;39.67
60061;BME280;45933;51.336;12.612;2023-04-06T08:04:54;100356.28;;;8.15;38.55
60061;BME280;45933;51.336;12.612;2023-04-06T08:07:19;100349.50;;;8.29;39.04
60061;BME280;45933;51.336;12.612;2023-04-06T08:09:44;100354.72;;;8.34;38.42
60061;BME280;45933;51.336;12.612;2023-04-06T08:12:10;100353.13;;;8.45;38.13
60061;BME280;45933;51.336;12.612;2023-04-06T08:14:35;100353.97;;;8.47;39.57
60061;BME280;45933;51.336;12.612;2023-04-06T08:17:01;100360.97;;;8.57;39.06
60061;BME280;45933;51.336;12.612;2023-04-06T08:19:26;100351.56;;;8.72;39.32
60061;BME280;45933;51.336;12.612;2023-04-06T08:21:51;100355.06;;;8.80;39.55
60061;BME280;45933;51.336;12.612;2023-04-06T08:24:16;100355.97;;;8.88;37.57
60061;BME280;45933;51.336;12.612;2023-04-06T08:26:42;100343.03;;;8.99;37.40
60061;BME280;45933;51.336;12.612;2023-04-06T08:29:07;100346.59;;;9.16;38.01
60061;BME280;45933;51.336;12.612;2023-04-06T08:31:33;100345.81;;;9.34;36.76
60061;BME280;45933;51.336;12.612;2023-04-06T08:33:59;100343.28;;;9.75;37.04
60061;BME280;45933;51.336;12.612;2023-04-06T08:36:24;100344.22;;;10.20;36.24
60061;BME280;45933;51.336;12.612;2023-04-06T08:38:49;100336.38;;;10.67;35.98
60061;BME280;45933;51.336;12.612;2023-04-06T08:41:16;100340.56;;;11.17;34.34
60061;BME280;45933;51.336;12.612;2023-04-06T08:43:47;100339.38;;;11.79;34.31
60061;BME280;45933;51.336;12.612;2023-04-06T08:46:13;100339.03;;;12.35;34.42
60061;BME280;45933;51.336;12.612;2023-04-06T08:48:40;100330.66;;;12.85;33.51
60061;BME280;45933;51.336;12.612;2023-04-06T08:51:05;100328.28;;;13.39;33.34
60061;BME280;45933;51.336;12.612;2023-04-06T08:53:31;100330.31;;;13.83;32.15
60061;BME280;45933;51.336;12.612;2023-04-06T08:55:57;100337.63;;;14.19;31.07
60061;BME280;45933;51.336;12.612;2023-04-06T08:58:23;100324.59;;;14.67;31.54
60061;BME280;45933;51.336;12.612;2023-04-06T09:00:50;100322.06;;;15.05;30.36
60061;BME280;45933;51.336;12.612;2023-04-06T09:03:16;100312.69;;;15.35;29.99
60061;BME280;45933;51.336;12.612;2023-04-06T09:05:43;100319.06;;;15.65;29.85
60061;BME280;45933;51.336;12.612;2023-04-06T09:08:09;100314.81;;;15.97;29.29
60061;BME280;45933;51.336;12.612;2023-04-06T09:10:34;100316.16;;;16.13;26.69
60061;BME280;45933;51.336;12.612;2023-04-06T09:13:06;100314.34;;;16.51;27.91
60061;BME280;45933;51.336;12.612;2023-04-06T09:15:31;100323.69;;;16.63;27.09
60061;BME280;45933;51.336;12.612;2023-04-06T09:17:57;100307.97;;;16.92;27.08
60061;BME280;45933;51.336;12.612;2023-04-06T09:20:24;100308.28;;;17.13;26.63
60061;BME280;45933;51.336;12.612;2023-04-06T09:22:54;100300.72;;;17.32;24.74
60061;BME280;45933;51.336;12.612;2023-04-06T09:25:21;100306.25;;;17.52;25.46
60061;BME280;45933;51.336;12.612;2023-04-06T09:27:48;100309.16;;;17.72;25.75
60061;BME280;45933;51.336;12.612;2023-04-06T09:30:14;100304.66;;;18.02;26.99
60061;BME280;45933;51.336;12.612;2023-04-06T09:32:59;100296.50;;;18.37;26.23
60061;BME280;45933;51.336;12.612;2023-04-06T09:35:25;100295.31;;;18.45;25.21
60061;BME280;45933;51.336;12.612;2023-04-06T09:37:52;100297.59;;;18.56;23.90
60061;BME280;45933;51.336;12.612;2023-04-06T09:40:18;100295.03;;;18.79;24.47
60061;BME280;45933;51.336;12.612;2023-04-06T09:42:48;100286.66;;;18.92;24.32
60061;BME280;45933;51.336;12.612;2023-04-06T09:45:16;100292.41;;;19.26;25.05
60061;BME280;45933;51.336;12.612;2023-04-06T09:47:44;100293.47;;;19.44;22.98
60061;BME280;45933;51.336;12.612;2023-04-06T09:50:11;100275.94;;;19.65;22.86
60061;BME280;45933;51.336;12.612;2023-04-06T09:52:42;100282.72;;;19.49;19.82
60061;BME280;45933;51.336;12.612;2023-04-06T09:55:10;100283.63;;;19.71;21.69
60061;BME280;45933;51.336;12.612;2023-04-06T09:57:55;100279.44;;;19.88;23.10
60061;BME280;45933;51.336;12.612;2023-04-06T10:00:23;100280.97;;;19.26;19.61
60061;BME280;45933;51.336;12.612;2023-04-06T10:06:03;100278.50;;;19.21;21.54
60061;BME280;45933;51.336;12.612;2023-04-06T10:08:30;100287.50;;;18.92;21.65
60061;BME280;45933;51.336;12.612;2023-04-06T10:10:58;100288.75;;;18.57;19.26
60061;BME280;45933;51.336;12.612;2023-04-06T10:13:24;100282.88;;;18.49;20.61
60061;BME280;45933;51.336;12.612;2023-04-06T10:15:51;100292.94;;;18.38;20.62
60061;BME280;45933;51.336;12.612;2023-04-06T10:18:17;100288.34;;;18.18;20.70
60061;BME280;45933;51.336;12.612;2023-04-06T10:23:22;100288.19;;;17.96;21.17
60061;BME280;45933;51.336;12.612;2023-04-06T10:25:57;100286.25;;;18.01;21.67
60061;BME280;45933;51.336;12.612;2023-04-06T10:28:23;100277.53;;;17.99;22.24
60061;BME280;45933;51.336;12.612;2023-04-06T10:30:48;100276.41;;;18.06;21.07
60061;BME280;45933;51.336;12.612;2023-04-06T10:33:15;100274.94;;;18.24;20.49
60061;BME280;45933;51.336;12.612;2023-04-06T10:35:41;100262.38;;;18.55;21.73
60061;BME280;45933;51.336;12.612;2023-04-06T10:38:06;100261.63;;;18.78;22.29
60061;BME280;45933;51.336;12.612;2023-04-06T10:40:36;100262.72;;;18.96;21.67
60061;BME280;45933;51.336;12.612;2023-04-06T10:43:10;100262.72;;;19.20;21.58
60061;BME280;45933;51.336;12.612;2023-04-06T10:45:36;100262.50;;;19.48;21.36
60061;BME280;45933;51.336;12.612;2023-04-06T10:48:16;100261.28;;;19.56;20.38
60061;BME280;45933;51.336;12.612;2023-04-06T10:50:49;100261.09;;;19.61;19.72
60061;BME280;45933;51.336;12.612;2023-04-06T10:53:25;100252.13;;;19.65;19.65
60061;BME280;45933;51.336;12.612;2023-04-06T10:55:52;100245.69;;;19.72;19.46
60061;BME280;45933;51.336;12.612;2023-04-06T10:58:18;100251.47;;;19.60;19.33
60061;BME280;45933;51.336;12.612;2023-04-06T11:00:48;100245.78;;;19.47;18.90
60061;BME280;45933;51.336;12.612;2023-04-06T11:03:14;100246.72;;;19.46;19.81
60061;BME280;45933;51.336;12.612;2023-04-06T11:05:47;100231.75;;;19.00;19.50
60061;BME280;45933;51.336;12.612;2023-04-06T11:08:26;100243.34;;;18.96;19.01
60061;BME280;45933;51.336;12.612;2023-04-06T11:10:52;100239.78;;;18.97;19.86
60061;BME280;45933;51.336;12.612;2023-04-06T11:13:17;100235.09;;;19.05;20.25
60061;BME280;45933;51.336;12.612;2023-04-06T11:15:43;100233.53;;;18.99;18.91
60061;BME280;45933;51.336;12.612;2023-04-06T11:18:08;100239.78;;;19.20;19.97
60061;BME280;45933;51.336;12.612;2023-04-06T11:20:33;100243.97;;;19.26;19.30
60061;BME280;45933;51.336;12.612;2023-04-06T11:22:59;100236.50;;;19.37;19.13
60061;BME280;45933;51.336;12.612;2023-04-06T11:25:25;100240.13;;;19.56;19.23
60061;BME280;45933;51.336;12.612;2023-04-06T11:27:53;100232.94;;;19.82;19.34
60061;BME280;45933;51.336;12.612;2023-04-06T11:30:18;100236.44;;;20.04;19.26
60061;BME280;45933;51.336;12.612;2023-04-06T11:32:45;100228.03;;;20.15;18.54
60061;BME280;45933;51.336;12.612;2023-04-06T11:35:31;100227.13;;;20.57;19.82
60061;BME280;45933;51.336;12.612;2023-04-06T11:37:57;100228.56;;;20.64;18.32
60061;BME280;45933;51.336;12.612;2023-04-06T11:40:23;100224.66;;;20.73;17.96
60061;BME280;45933;51.336;12.612;2023-04-06T11:42:54;100219.72;;;21.03;19.72
60061;BME280;45933;51.336;12.612;2023-04-06T11:45:20;100225.22;;;20.98;19.10
60061;BME280;45933;51.336;12.612;2023-04-06T11:47:58;100215.78;;;20.93;17.90
60061;BME280;45933;51.336;12.612;2023-04-06T11:50:24;100215.06;;;21.08;17.51
60061;BME280;45933;51.336;12.612;2023-04-06T11:52:58;100206.38;;;21.23;18.06
60061;BME280;45933;51.336;12.612;2023-04-06T11:55:25;100207.81;;;21.49;20.16
60061;BME280;45933;51.336;12.612;2023-04-06T11:57:50;100207.78;;;21.32;17.69
60061;BME280;45933;51.336;12.612;2023-04-06T12:00:17;100213.34;;;21.45;17.24
60061;BME280;45933;51.336;12.612;2023-04-06T12:02:46;100211.06;;;21.37;17.65
60061;BME280;45933;51.336;12.612;2023-04-06T12:05:11;100204.31;;;21.49;17.10
60061;BME280;45933;51.336;12.612;2023-04-06T12:07:37;100192.19;;;21.62;17.76
60061;BME280;45933;51.336;12.612;2023-04-06T12:10:03;100193.50;;;21.71;18.26
60061;BME280;45933;51.336;12.612;2023-04-06T12:12:28;100201.38;;;21.72;17.64
60061;BME280;45933;51.336;12.612;2023-04-06T12:14:55;100194.69;;;21.82;16.58
60061;BME280;45933;51.336;12.612;2023-04-06T12:17:20;100188.50;;;21.64;16.41
60061;BME280;45933;51.336;12.612;2023-04-06T12:19:46;100192.00;;;21.65;16.48
60061;BME280;45933;51.336;12.612;2023-04-06T12:22:11;100188.59;;;21.63;16.80
60061;BME280;45933;51.336;12.612;2023-04-06T12:24:36;100184.81;;;21.50;16.45
60061;BME280;45933;51.336;12.612;2023-04-06T12:27:02;100183.47;;;21.41;17.04
60061;BME280;45933;51.336;12.612;2023-04-06T12:29:27;100182.38;;;21.45;16.25
60061;BME280;45933;51.336;12.612;2023-04-06T12:31:52;100176.44;;;21.40;16.63
60061;BME280;45933;51.336;12.612;2023-04-06T12:34:18;100180.53;;;21.47;17.93
60061;BME280;45933;51.336;12.612;2023-04-06T12:36:43;100180.25;;;21.34;16.73
60061;BME280;45933;51.336;12.612;2023-04-06T12:39:09;100174.09;;;21.34;16.17
60061;BME280;45933;51.336;12.612;2023-04-06T12:41:34;100169.50;;;21.37;16.55
60061;BME280;45933;51.336;12.612;2023-04-06T12:43:59;100172.50;;;21.30;17.34
60061;BME280;45933;51.336;12.612;2023-04-06T12:46:25;100160.47;;;21.23;17.09
60061;BME280;45933;51.336;12.612;2023-04-06T12:48:51;100162.81;;;21.29;18.23